Stations météo

réclame
Mon MeteoGroup
Utklippan, Suède (2632): Température de l'air & dewpoint: 11.01.2019 02:00:00 - 17.01.2019 02:00:00 (CET)Utklippan, Suède (2632): Vitesse du vent & gusts: 11.01.2019 02:00:00 - 17.01.2019 02:00:00 (CET)Utklippan, Suède (2632): Direction du vent: 11.01.2019 02:00:00 - 17.01.2019 02:00:00 (CET)
Date & Time tt [°C] td [°C] ff [km/h] ff [knt] fx [km/h] fx [knt] dd
17.01.2019 02:00:00 - - - - - - -
17.01.2019 01:00:00 4,7 4,0 56 31 73 40 SW
17.01.2019 00:00:00 4,7 4,3 54 29 73 39 SW
16.01.2019 23:00:00 4,8 4,4 53 29 69 37 SW
16.01.2019 22:00:00 5,0 4,6 53 28 67 36 SW
16.01.2019 21:00:00 - 4,5 45 25 63 34 SW
16.01.2019 20:00:00 4,9 4,6 48 26 61 33 SW
16.01.2019 19:00:00 4,9 4,6 44 24 61 33 SW
16.01.2019 18:00:00 4,9 4,6 45 24 58 32 SW
16.01.2019 17:00:00 4,9 4,3 44 24 58 31 SW
16.01.2019 16:00:00 4,9 4,3 44 24 55 30 SW
16.01.2019 15:00:00 4,9 4,3 39 21 51 28 SW
16.01.2019 14:00:00 4,9 4,5 37 20 45 25 SW
16.01.2019 13:00:00 4,7 4,6 31 17 42 23 SW
16.01.2019 12:00:00 4,4 4,3 26 14 35 19 SW
16.01.2019 11:00:00 4,1 3,8 24 13 31 17 SSW
16.01.2019 10:00:00 3,9 3,6 19 10 28 15 SW
16.01.2019 09:00:00 3,8 3,2 11 6 16 9 SSW
16.01.2019 08:00:00 3,7 2,7 9 5 11 6 SSW
16.01.2019 07:00:00 3,5 2,6 8 4 13 7 WSW
16.01.2019 06:00:00 3,7 2,5 11 6 18 10 WNW
16.01.2019 05:00:00 3,9 2,4 16 8 24 13 WNW
16.01.2019 04:00:00 3,9 2,3 18 10 29 16 WNW
16.01.2019 03:00:00 3,7 2,7 15 8 19 11 W
16.01.2019 02:00:00 1,9 0,9 9 5 11 6 SSW
16.01.2019 01:00:00 1,3 0,3 2 1 6 4 SW
16.01.2019 00:00:00 1,3 -0,2 3 2 16 9 NNW
15.01.2019 23:00:00 1,4 0,1 14 8 28 15 NNW
15.01.2019 22:00:00 1,7 0,4 22 12 40 21 NW
15.01.2019 21:00:00 2,0 0,7 36 19 64 35 NNW
15.01.2019 20:00:00 2,6 1,3 49 27 65 35 NW
15.01.2019 19:00:00 3,6 3,2 41 22 52 28 WNW
15.01.2019 18:00:00 3,5 3,4 32 18 45 24 WSW
15.01.2019 17:00:00 1,3 1,2 24 13 30 16 SSW
15.01.2019 16:00:00 0,5 0,4 16 9 22 12 SSW
15.01.2019 15:00:00 -0,3 -0,7 16 9 34 18 WSW
15.01.2019 14:00:00 -0,1 -1,7 30 16 48 26 WNW
15.01.2019 13:00:00 1,6 -6,2 29 16 35 19 WNW
15.01.2019 12:00:00 1,5 -5,6 29 16 37 20 WNW
15.01.2019 11:00:00 1,0 -6,3 28 15 39 21 WNW
15.01.2019 10:00:00 1,0 -5,9 33 18 44 24 NW
15.01.2019 09:00:00 1,0 -5,9 36 20 45 24 NW
15.01.2019 08:00:00 1,0 -5,5 37 20 54 29 NW
15.01.2019 07:00:00 1,3 -5,0 46 25 60 32 WNW
15.01.2019 06:00:00 1,5 -4,2 48 26 61 33 WNW
15.01.2019 05:00:00 1,5 -4,8 48 26 59 32 WNW
15.01.2019 04:00:00 1,9 -4,2 48 26 61 33 WNW
15.01.2019 03:00:00 1,9 -3,6 45 25 59 32 WNW
15.01.2019 02:00:00 2,1 -3,8 48 26 64 35 WNW
15.01.2019 01:00:00 2,3 -3,8 48 26 66 36 WNW
15.01.2019 00:00:00 2,5 -3,6 55 30 69 37 WNW
14.01.2019 23:00:00 2,7 -3,2 55 30 69 37 WNW
14.01.2019 22:00:00 2,6 -3,1 55 30 68 37 WNW
14.01.2019 21:00:00 - - - - 68 37 -
14.01.2019 20:00:00 2,4 -3,7 55 30 72 39 WNW
14.01.2019 19:00:00 2,5 -3,8 58 31 75 40 WNW
14.01.2019 18:00:00 2,4 -3,7 61 33 77 42 WNW
14.01.2019 17:00:00 2,4 -4,6 59 32 79 43 WNW
14.01.2019 16:00:00 2,1 -5,3 54 29 67 36 WNW
14.01.2019 15:00:00 1,6 -6,7 48 26 64 35 WNW
14.01.2019 14:00:00 1,3 -7,3 50 27 64 34 WNW
14.01.2019 13:00:00 0,8 -7,7 47 25 - - NW
14.01.2019 12:00:00 0,5 -7,7 46 25 63 34 NW
14.01.2019 11:00:00 0,1 -7,0 50 27 63 34 NW
14.01.2019 10:00:00 -0,1 -6,5 55 30 69 37 NW
14.01.2019 09:00:00 -0,1 -6,1 54 29 69 37 NW
14.01.2019 08:00:00 0,2 -5,0 55 30 69 38 WNW
14.01.2019 07:00:00 0,4 -5,0 53 28 67 36 WNW
14.01.2019 06:00:00 0,4 -4,5 47 25 67 36 WNW
14.01.2019 05:00:00 0,3 -4,5 48 26 63 34 NW
14.01.2019 04:00:00 0,8 -3,3 46 25 59 32 NNW
14.01.2019 03:00:00 1,6 -1,8 50 27 66 36 NW
14.01.2019 02:00:00 2,3 -0,1 40 22 70 38 NW
14.01.2019 01:00:00 3,0 0,7 49 27 62 34 NW
14.01.2019 00:00:00 4,0 3,0 30 16 40 22 NNW
13.01.2019 23:00:00 4,3 3,6 28 15 37 20 NW
13.01.2019 22:00:00 - - - - 36 19 -
13.01.2019 21:00:00 4,6 4,3 29 16 33 18 WNW
13.01.2019 20:00:00 4,4 4,1 25 14 39 21 SW
13.01.2019 19:00:00 4,5 4,1 33 18 41 22 SW
13.01.2019 18:00:00 4,7 4,3 29 15 42 23 WSW
13.01.2019 17:00:00 4,7 4,6 21 11 37 20 WSW
13.01.2019 16:00:00 4,8 4,7 27 15 45 25 WSW
13.01.2019 15:00:00 4,6 4,5 36 19 51 28 SW
13.01.2019 14:00:00 4,2 4,1 30 16 40 22 SW
13.01.2019 13:00:00 4,3 4,2 30 16 41 22 SW
13.01.2019 12:00:00 4,2 4,1 32 18 42 23 SW
13.01.2019 11:00:00 3,6 3,3 28 15 34 19 SW
13.01.2019 10:00:00 3,4 2,8 23 13 35 19 WSW
13.01.2019 09:00:00 2,7 2,4 17 9 24 13 WSW
13.01.2019 08:00:00 2,7 1,8 19 10 32 18 WNW
13.01.2019 07:00:00 2,7 2,3 18 10 23 12 WNW
13.01.2019 06:00:00 3,1 2,8 15 8 22 12 WNW
13.01.2019 05:00:00 2,8 2,8 15 8 19 11 WNW
13.01.2019 04:00:00 2,7 2,7 13 7 17 9 NW
13.01.2019 03:00:00 2,8 2,8 10 5 13 7 NNW
13.01.2019 02:00:00 3,2 3,2 6 3 8 5 NW
13.01.2019 01:00:00 3,4 3,4 3 2 7 4 NNW
13.01.2019 00:00:00 3,3 3,3 3 2 8 4 NE
12.01.2019 23:00:00 3,6 3,6 2 1 3 2 NNE
12.01.2019 22:00:00 3,6 3,6 2 1 3 2 SE
12.01.2019 21:00:00 3,7 3,7 0 0 9 5 N
12.01.2019 20:00:00 4,0 3,9 7 4 20 11 SW
12.01.2019 19:00:00 4,1 4,0 21 11 31 17 SW
12.01.2019 18:00:00 4,1 3,8 21 11 27 14 WSW
12.01.2019 17:00:00 4,0 3,6 16 9 29 16 WSW
12.01.2019 16:00:00 3,8 3,4 21 11 29 16 WSW
12.01.2019 15:00:00 3,0 2,4 23 12 32 18 SW
12.01.2019 14:00:00 3,2 2,0 19 11 26 14 WSW
12.01.2019 13:00:00 2,2 1,0 22 12 28 15 WSW
12.01.2019 12:00:00 1,3 1,0 22 12 36 20 W
12.01.2019 11:00:00 1,9 1,5 26 14 38 21 WSW
12.01.2019 10:00:00 2,7 1,5 25 14 31 17 SW
12.01.2019 09:00:00 2,8 0,4 14 8 28 15 WSW
12.01.2019 08:00:00 2,1 -1,0 16 9 20 11 WSW
12.01.2019 07:00:00 1,3 -3,0 10 6 24 13 WNW
12.01.2019 06:00:00 1,7 -2,4 21 11 34 18 NW
12.01.2019 05:00:00 1,8 -1,8 32 17 38 20 WNW
12.01.2019 04:00:00 2,3 -2,4 34 18 40 22 WNW
12.01.2019 03:00:00 1,9 -2,2 30 16 39 21 NW
12.01.2019 02:00:00 2,0 -2,0 31 17 39 21 WNW
12.01.2019 01:00:00 2,3 -2,0 33 18 41 22 NW
12.01.2019 00:00:00 2,2 -1,8 33 18 39 21 NW
11.01.2019 23:00:00 2,8 -1,9 33 18 41 22 NW
11.01.2019 22:00:00 3,4 -1,6 33 18 40 21 NW
11.01.2019 21:00:00 3,0 0,2 27 15 34 18 NW
11.01.2019 20:00:00 3,2 1,6 25 14 33 18 NW
11.01.2019 19:00:00 3,3 2,4 23 13 29 16 NW
11.01.2019 18:00:00 3,4 2,5 26 14 31 17 NNW
11.01.2019 17:00:00 3,6 2,7 19 10 25 13 NW
11.01.2019 16:00:00 3,9 3,0 19 10 25 13 NW
11.01.2019 15:00:00 4,1 3,1 19 11 33 18 NW
11.01.2019 14:00:00 4,2 3,6 20 11 32 17 NW
11.01.2019 13:00:00 4,1 3,8 27 15 35 19 WNW
11.01.2019 12:00:00 4,4 4,0 26 14 37 20 WNW
11.01.2019 11:00:00 4,5 4,2 28 15 37 20 WSW
11.01.2019 10:00:00 4,2 3,9 27 14 36 20 WSW
11.01.2019 09:00:00 4,0 3,7 30 16 47 26 WSW
11.01.2019 08:00:00 3,8 3,5 39 21 51 28 SW
11.01.2019 07:00:00 3,6 3,2 42 23 54 29 SW
11.01.2019 06:00:00 3,5 2,8 39 21 57 31 WSW
11.01.2019 05:00:00 3,3 2,7 41 22 58 31 WSW
11.01.2019 04:00:00 3,3 2,1 42 23 54 29 SW
11.01.2019 03:00:00 3,4 1,8 39 21 51 27 SW
11.01.2019 02:00:00 3,0 0,7 42 23 51 28 SW

tt = Température de l'air
td = dewpoint
ff = Vitesse du vent
fx = gusts
dd = Direction du vent

stations d'obs. à proximité